<?xml version="1.0" encoding="utf-8"?>
<gpx xmlns:xsi="http://www.w3.org/2001/XMLSchema-instance" xmlns:xsd="http://www.w3.org/2001/XMLSchema" version="1.1" creator="Shapelink.com" xmlns="http://www.topografix.com/GPX/1/1" xmlns:gpxtpx="http://www.garmin.com/xmlschemas/TrackPointExtension/v1">
  <metadata>
    <name>Övrigt 1.31 km, 2020-07-14</name>
    <desc></desc>
    <author><name>Marian Moron</name></author> 
    <time>2020-07-14T20:56:08Z</time>
  </metadata>
  <trk>
    <name>Övrigt 1.31 km, 2020-07-14</name>
    <trkseg>
      <trkpt lat="51.229443742338" lon="4.457921729262">
        <ele>0</ele>
        <time>2020-07-14T20:56:08Z</time>
      </trkpt>
      <trkpt lat="51.229223298368" lon="4.457970847196">
        <ele>0</ele>
        <time>2020-07-14T20:56:34Z</time>
      </trkpt>
      <trkpt lat="51.228801604979" lon="4.458248623362">
        <ele>0</ele>
        <time>2020-07-14T20:57:14Z</time>
      </trkpt>
      <trkpt lat="51.228436992329" lon="4.458380135373">
        <ele>0</ele>
        <time>2020-07-14T20:57:48Z</time>
      </trkpt>
      <trkpt lat="51.228334062597" lon="4.458430091497">
        <ele>0</ele>
        <time>2020-07-14T20:58:01Z</time>
      </trkpt>
      <trkpt lat="51.22788286492" lon="4.458571577969">
        <ele>0</ele>
        <time>2020-07-14T20:58:46Z</time>
      </trkpt>
      <trkpt lat="51.227724195553" lon="4.458606362854">
        <ele>0</ele>
        <time>2020-07-14T20:59:10Z</time>
      </trkpt>
      <trkpt lat="51.227290851323" lon="4.458816077992">
        <ele>0</ele>
        <time>2020-07-14T20:59:45Z</time>
      </trkpt>
      <trkpt lat="51.227209295436" lon="4.458863519546">
        <ele>0</ele>
        <time>2020-07-14T20:59:52Z</time>
      </trkpt>
      <trkpt lat="51.226996981909" lon="4.458970221133">
        <ele>0</ele>
        <time>2020-07-14T21:00:33Z</time>
      </trkpt>
      <trkpt lat="51.226688025075" lon="4.459292840464">
        <ele>0</ele>
        <time>2020-07-14T21:01:05Z</time>
      </trkpt>
      <trkpt lat="51.226638068951" lon="4.459347155176">
        <ele>0</ele>
        <time>2020-07-14T21:01:10Z</time>
      </trkpt>
      <trkpt lat="51.226391976367" lon="4.459647143377">
        <ele>0</ele>
        <time>2020-07-14T21:01:42Z</time>
      </trkpt>
      <trkpt lat="51.226407147606" lon="4.459708750342">
        <ele>0</ele>
        <time>2020-07-14T21:01:48Z</time>
      </trkpt>
      <trkpt lat="51.226394323299" lon="4.459887284812">
        <ele>0</ele>
        <time>2020-07-14T21:02:06Z</time>
      </trkpt>
      <trkpt lat="51.22640681233" lon="4.460218788957">
        <ele>1.4</ele>
        <time>2020-07-14T21:02:34Z</time>
      </trkpt>
      <trkpt lat="51.226458444834" lon="4.46027888718">
        <ele>0</ele>
        <time>2020-07-14T21:02:42Z</time>
      </trkpt>
      <trkpt lat="51.226528852794" lon="4.460390282631">
        <ele>0</ele>
        <time>2020-07-14T21:02:51Z</time>
      </trkpt>
      <trkpt lat="51.226612923251" lon="4.460530260361">
        <ele>0</ele>
        <time>2020-07-14T21:03:09Z</time>
      </trkpt>
      <trkpt lat="51.226754409723" lon="4.461211122098">
        <ele>0</ele>
        <time>2020-07-14T21:03:48Z</time>
      </trkpt>
      <trkpt lat="51.226935877858" lon="4.461545895184">
        <ele>10.2</ele>
        <time>2020-07-14T21:04:45Z</time>
      </trkpt>
      <trkpt lat="51.2272642807" lon="4.461365349058">
        <ele>0</ele>
        <time>2020-07-14T21:05:45Z</time>
      </trkpt>
      <trkpt lat="51.227518839003" lon="4.460983972608">
        <ele>6.8</ele>
        <time>2020-07-14T21:08:14Z</time>
      </trkpt>
      <trkpt lat="51.227829304579" lon="4.460599494855">
        <ele>15.4</ele>
        <time>2020-07-14T21:09:29Z</time>
      </trkpt>
      <trkpt lat="51.228021585365" lon="4.460588933661">
        <ele>20.6</ele>
        <time>2020-07-14T21:09:45Z</time>
      </trkpt>
      <trkpt lat="51.228358705383" lon="4.460100185072">
        <ele>12.4</ele>
        <time>2020-07-14T21:10:37Z</time>
      </trkpt>
      <trkpt lat="51.228366081455" lon="4.460025083248">
        <ele>9.6</ele>
        <time>2020-07-14T21:10:40Z</time>
      </trkpt>
      <trkpt lat="51.228537323672" lon="4.459359644207">
        <ele>0</ele>
        <time>2020-07-14T21:11:32Z</time>
      </trkpt>
      <trkpt lat="51.228543945373" lon="4.459333744136">
        <ele>0</ele>
        <time>2020-07-14T21:11:34Z</time>
      </trkpt>
      <trkpt lat="51.228571354186" lon="4.458643243214">
        <ele>0</ele>
        <time>2020-07-14T21:12:22Z</time>
      </trkpt>
      <trkpt lat="51.228594069135" lon="4.458093642031">
        <ele>2</ele>
        <time>2020-07-14T21:13:23Z</time>
      </trkpt>
      <trkpt lat="51.228576550964" lon="4.457866492541">
        <ele>4</ele>
        <time>2020-07-14T21:13:39Z</time>
      </trkpt>
      <trkpt lat="51.228580741914" lon="4.457620483776">
        <ele>0</ele>
        <time>2020-07-14T21:14:01Z</time>
      </trkpt>
      <trkpt lat="51.228611084392" lon="4.457205076812">
        <ele>0</ele>
        <time>2020-07-14T21:14:46Z</time>
      </trkpt>
      <trkpt lat="51.22866657257" lon="4.457039366649">
        <ele>0</ele>
        <time>2020-07-14T21:15:04Z</time>
      </trkpt>
      <trkpt lat="51.228690125709" lon="4.456986812136">
        <ele>0</ele>
        <time>2020-07-14T21:15:08Z</time>
      </trkpt>
      <trkpt lat="51.229111735279" lon="4.456975748028">
        <ele>16</ele>
        <time>2020-07-14T21:16:01Z</time>
      </trkpt>
      <trkpt lat="51.229191782424" lon="4.457018830994">
        <ele>23.2</ele>
        <time>2020-07-14T21:16:15Z</time>
      </trkpt>
      <trkpt lat="51.2292843186" lon="4.456997205692">
        <ele>26</ele>
        <time>2020-07-14T21:16:27Z</time>
      </trkpt>
      <trkpt lat="51.229378698794" lon="4.457010616732">
        <ele>25</ele>
        <time>2020-07-14T21:16:47Z</time>
      </trkpt>
      <trkpt lat="51.229561005119" lon="4.456851863546">
        <ele>13.8</ele>
        <time>2020-07-14T21:17:03Z</time>
      </trkpt>
      <trkpt lat="51.229680698651" lon="4.456839709791">
        <ele>0</ele>
        <time>2020-07-14T21:17:18Z</time>
      </trkpt>
      <trkpt lat="51.229742137978" lon="4.457009275628">
        <ele>0</ele>
        <time>2020-07-14T21:17:44Z</time>
      </trkpt>
      <trkpt lat="51.229801230373" lon="4.457313035684">
        <ele>0</ele>
        <time>2020-07-14T21:18:02Z</time>
      </trkpt>
      <trkpt lat="51.22984171495" lon="4.457497353665">
        <ele>0.4</ele>
        <time>2020-07-14T21:18:26Z</time>
      </trkpt>
      <trkpt lat="51.229853952524" lon="4.457718803463">
        <ele>0</ele>
        <time>2020-07-14T21:18:56Z</time>
      </trkpt>
      <trkpt lat="51.229734929544" lon="4.457845537791">
        <ele>0</ele>
        <time>2020-07-14T21:19:19Z</time>
      </trkpt>
      <trkpt lat="51.229328826489" lon="4.458078051697">
        <ele>0</ele>
        <time>2020-07-14T21:20:13Z</time>
      </trkpt>
      <trkpt lat="51.229387248332" lon="4.458116943713">
        <ele>0</ele>
        <time>2020-07-14T21:20:24Z</time>
      </trkpt>
      <trkpt lat="51.229821430752" lon="4.458030777781">
        <ele>0</ele>
        <time>2020-07-14T21:21:27Z</time>
      </trkpt>
    </trkseg>
  </trk>
</gpx>